Sieper, Louisiana
Current Conditions -  °F | °C
As of 6:54 PM on Saturday 25 Oct 2014 (Local Time) from KBKB Reporting Station
Clear Clear  
Wind Chill: 69°   Ceiling: Unl
Heat Index: 69°   Visibility: 10mi
Dew Point: 56°   Wind: 0mph
Humidity: 63%   Direction: NA
Pressure: 30.07"   Gusts: NA
Location:  31.21°N, 92.81°W
Report Text: KBKB 252354Z AUTO 00000KT 10SM CLR 21/13 A3007 RMK AO2 SLP210 T02060133 10306 20206 53001
Loading
Personal Weather Stations






























Interactive Weather Map
Tropical Storm Tracking
New forecast layout! Learn more

10-Day Weather Forecast

Advertisements
Track Severe Weather on mobile